首页
METAR-TAF:

METAR-TAF

机场 :

密尔沃基, 威斯康辛州, 美国

纬度: 42-57-18N, 经度: 087-54-16W, 海拔: 220米

当前天气观测

该预报发布于29分钟前的06:52 UTC
风速17节,风向西,有时为28节阵风
温度 -13°C
湿度 66%
气压 1014 hPa
能見度: 16.1公里
多云层高于1800英尺

METAR: KMKE 190652Z 27017G28KT 10SM BKN018 M13/M18 A2994 RMK AO2 PK WND 27029/0627 SLP150 T11331183 $

时间: 01:21 (07:21 UTC)

预报

该预报发布于2小时和1分钟前的05:20 UTC
预报有效从19日的 06点(UTC)到 20日的 12点(UTC)
风速19节,风向西,有时为30节阵风
能見度: 10公里
多云层高于2100英尺
从 19日的 1200点(UTC)
风速16节,风向西转西北,有时为26节阵风
能見度: 10公里
多云层高于2300英尺
从 19日的 1800点(UTC)
风速12节,风向西北
能見度: 10公里
多云层高于2800英尺
从 20日的 0400点(UTC)
风速8节,风向西北
能見度: 10公里
多云层高于3500英尺

TAF: KMKE 190520Z 1906/2012 28019G30KT P6SM BKN021 FM191200 29016G26KT P6SM BKN023 FM191800 31012KT P6SM BKN028 FM200400 32008KT P6SM BKN035

超过4000个机场的气象观测和天气预报(METAR&TAF报告)。

可查询的气象台以黄色和红色小点在地图上表示。

将鼠标移到小点上方,可查看气象台名称。

然后点击查看天气观测和预报。

如需切换地图:点击带黑十字的绿色按钮放大地图;点击带横线的绿色按钮缩小地图;或者点击绿色箭头查看邻近地区的地图。


METAR-TAF: